Aérodrome de Castelnaudary-Villeneuve

LFMW · Occitanie, 法国

2022年10月7日

时间 代码 天气 温度 能见度 天花板 METAR/SPECI
21:00
V
18 °C 10 km+ - 110° 110° 7 kt METAR LFCK 071900Z AUTO 11007KT CAVOK 18/14 Q1022 NOSIG
20:30
V
18 °C 10 km+ - 110° 110° 8 kt METAR LFCK 071830Z AUTO 11008KT CAVOK 18/14 Q1022 NOSIG
20:00
V
18 °C 10 km+ - 100° 100° 7 kt METAR LFCK 071800Z AUTO 10007KT CAVOK 18/14 Q1022 NOSIG
19:30
V
19 °C 10 km+ - 110° 110° 6 kt METAR LFCK 071730Z AUTO 11006KT CAVOK 19/14 Q1022 NOSIG
19:00
V
19 °C 10 km+ - 120° 120° 6 kt METAR LFCK 071700Z AUTO 12006KT CAVOK 19/14 Q1022 NOSIG
18:30
V
20 °C 10 km+ - 110° 110° 7 kt METAR LFCK 071630Z AUTO 11007KT CAVOK 20/14 Q1022 NOSIG
18:00
V
20 °C 10 km+ 13.000 ft 110° 110° 8 kt METAR LFCK 071600Z AUTO 11008KT 9999 FEW034 OVC130 20/14 Q1022 NOSIG
17:30
V
20 °C 10 km+ - 100° 100° 9 kt METAR LFCK 071530Z AUTO 10009KT CAVOK 20/14 Q1022 NOSIG
17:00
V
20 °C 10 km+ 14.000 ft 110° 110° 10 kt METAR LFCK 071500Z AUTO 11010KT 9999 FEW032 OVC140 20/14 Q1022 NOSIG
16:30
V
21 °C 10 km+ 15.000 ft 110° 110° 8 kt METAR LFCK 071430Z AUTO 11008KT 9999 FEW031 OVC150 21/14 Q1022 NOSIG
16:00
V
21 °C 10 km+ 15.000 ft 110° 110° 10 kt METAR LFCK 071400Z AUTO 11010KT 9999 FEW032 BKN150 21/14 Q1022 NOSIG
15:30
V
22 °C 10 km+ 15.000 ft 120° 120° 10 kt METAR LFCK 071330Z AUTO 12010KT 9999 FEW035 OVC150 22/14 Q1022 NOSIG
15:00
V
22 °C 10 km+ 3.600 ft 120° 120° 10 kt METAR LFCK 071300Z AUTO 12010KT 090V160 9999 BKN036 OVC160 22/14 Q1023 NOSIG
14:30
V
22 °C 10 km+ 3.700 ft 130° 130° 11 kt METAR LFCK 071230Z AUTO 13011KT 110V170 9999 BKN037 OVC160 22/14 Q1023 NOSIG
14:00
V
23 °C 10 km+ 3.700 ft 150° 150° 13 kt METAR LFCK 071200Z AUTO 15013KT 9999 BKN037 OVC160 23/13 Q1023 NOSIG
13:30
V
22 °C 10 km+ 17.000 ft 120° 120° 10 kt METAR LFCK 071130Z AUTO 12010KT 080V140 9999 FEW035 OVC170 22/13 Q1024 NOSIG
13:00
V
22 °C 10 km+ - 110° 110° 9 kt METAR LFCK 071100Z AUTO 11009KT 070V160 CAVOK 22/14 Q1024 NOSIG
12:30
V
22 °C 10 km+ - 110° 110° 11 kt METAR LFCK 071030Z AUTO 11011KT 090V150 CAVOK 22/14 Q1024 NOSIG
12:00
V
20 °C 10 km+ - 110° 110° 12 kt METAR LFCK 071000Z AUTO 11012KT CAVOK 20/14 Q1025 NOSIG
11:30
V
20 °C 10 km+ - 120° 120° 12 kt METAR LFCK 070930Z AUTO 12012KT 080V140 CAVOK 20/14 Q1025 NOSIG
11:00
V
19 °C 10 km+ - 110° 110° 12 kt METAR LFCK 070900Z AUTO 11012KT CAVOK 19/14 Q1025 NOSIG
10:30
V
18 °C 10 km+ - 110° 110° 11 kt METAR LFCK 070830Z AUTO 11011KT CAVOK 18/13 Q1025 NOSIG
10:00
V
18 °C 10 km+ - 120° 120° 11 kt METAR LFCK 070800Z AUTO 12011KT CAVOK 18/13 Q1025 NOSIG
09:30
V
17 °C 10 km+ - 110° 110° 11 kt METAR LFCK 070730Z AUTO 11011KT CAVOK 17/13 Q1025 NOSIG
09:00
V
17 °C 10 km+ - 110° 110° 7 kt METAR LFCK 070700Z AUTO 11007KT 090V150 CAVOK 17/13 Q1025 NOSIG
08:30
V
16 °C 10 km+ - 100° 100° 12 kt METAR LFCK 070630Z AUTO 10012KT CAVOK 16/13 Q1025 NOSIG
08:00
V
16 °C 10 km+ - 110° 110° 15 kt METAR LFCK 070600Z AUTO 11015KT CAVOK 16/13 Q1024 NOSIG
07:30
V
17 °C 10 km+ - 110° 110° 12 kt METAR LFCK 070530Z AUTO 11012KT CAVOK 17/13 Q1024 NOSIG
07:00
V
16 °C 10 km+ - 110° 110° 8 kt METAR LFCK 070500Z AUTO 11008KT CAVOK 16/13 Q1025
06:30
V
16 °C 10 km+ - 110° 110° 8 kt METAR LFCK 070430Z AUTO 11008KT CAVOK 16/13 Q1025
06:00
V
16 °C 10 km+ - 110° 110° 7 kt METAR LFCK 070400Z AUTO 11007KT CAVOK 16/13 Q1025
05:30
V
15 °C 10 km+ - 090° 090° 6 kt METAR LFCK 070330Z AUTO 09006KT CAVOK 15/13 Q1025
05:00
V
13 °C 10 km+ - 110° 110° 5 kt METAR LFCK 070300Z AUTO 11005KT CAVOK 13/12 Q1025
04:30
V
13 °C 8 km - 120° 120° 3 kt METAR LFCK 070230Z AUTO 12003KT 8000 NSC 13/12 Q1025
04:00
V
14 °C 9 km - 140° 140° 4 kt METAR LFCK 070200Z AUTO 14004KT 120V180 9000 NSC 14/13 Q1026
03:30
V
14 °C 10 km+ - 080° 080° 5 kt METAR LFCK 070130Z AUTO 08005KT CAVOK 14/13 Q1026
03:00
V
13 °C 10 km+ - 080° 080° 5 kt METAR LFCK 070100Z AUTO 08005KT CAVOK 13/13 Q1026
02:30
V
13 °C 10 km+ - 140° 140° 4 kt METAR LFCK 070030Z AUTO 14004KT CAVOK 13/12 Q1027
02:00
V
13 °C 10 km+ - 100° 100° 2 kt METAR LFCK 070000Z AUTO 10002KT CAVOK 13/13 Q1027
01:30
V
14 °C 10 km+ - 120° 120° 3 kt METAR LFCK 062330Z AUTO 12003KT CAVOK 14/13 Q1027
01:00
V
14 °C 9 km - Var Var 2 kt METAR LFCK 062300Z AUTO VRB02KT 9000 NSC 14/13 Q1028
00:30
V
13 °C 10 km+ - 110° 110° 3 kt METAR LFCK 062230Z AUTO 11003KT CAVOK 13/13 Q1028
00:00
V
14 °C 10 km+ - 150° 150° 4 kt METAR LFCK 062200Z AUTO 15004KT CAVOK 14/13 Q1028

2022年10月6日

时间 代码 天气 温度 能见度 天花板 METAR/SPECI
23:30
V
14 °C 10 km+ - 090° 090° 3 kt METAR LFCK 062130Z AUTO 09003KT CAVOK 14/13 Q1028
23:00
V
14 °C 10 km+ - 130° 130° 4 kt METAR LFCK 062100Z AUTO 13004KT CAVOK 14/13 Q1028 NOSIG
22:30
V
14 °C 10 km+ - 140° 140° 5 kt METAR LFCK 062030Z AUTO 14005KT CAVOK 14/13 Q1028 NOSIG
22:00
V
15 °C 10 km+ - 140° 140° 3 kt METAR LFCK 062000Z AUTO 14003KT CAVOK 15/13 Q1029 NOSIG
21:30
V
15 °C 10 km+ - 150° 150° 4 kt METAR LFCK 061930Z AUTO 15004KT CAVOK 15/14 Q1028 NOSIG
21:00
V
16 °C 10 km+ - 140° 140° 3 kt METAR LFCK 061900Z AUTO 14003KT CAVOK 16/14 Q1028 NOSIG
20:30
V
16 °C 10 km+ - 150° 150° 3 kt METAR LFCK 061830Z AUTO 15003KT CAVOK 16/14 Q1028 NOSIG
20:00
V
18 °C 10 km+ - 200° 200° 3 kt METAR LFCK 061800Z AUTO 20003KT CAVOK 18/14 Q1028 NOSIG
19:30
V
19 °C 10 km+ - 290° 290° 3 kt METAR LFCK 061730Z AUTO 29003KT CAVOK 19/15 Q1028 NOSIG
19:00
V
20 °C 10 km+ - 270° 270° 4 kt METAR LFCK 061700Z AUTO 27004KT CAVOK 20/15 Q1028 NOSIG
18:30
V
21 °C 10 km+ - 260° 260° 4 kt METAR LFCK 061630Z AUTO 26004KT 240V300 CAVOK 21/15 Q1028 NOSIG
18:00
V
21 °C 10 km+ - 260° 260° 3 kt METAR LFCK 061600Z AUTO 26003KT 220V290 CAVOK 21/15 Q1028 NOSIG
17:30
V
22 °C 10 km+ - Var Var 3 kt METAR LFCK 061530Z AUTO VRB03KT CAVOK 22/15 Q1028 NOSIG
17:00
V
22 °C 10 km+ - Var Var 2 kt METAR LFCK 061500Z AUTO VRB02KT CAVOK 22/14 Q1028 NOSIG
16:30
V
21 °C 10 km+ - 350° 350° 4 kt METAR LFCK 061430Z AUTO 35004KT 320V020 9999 FEW030 21/15 Q1029 NOSIG
16:00
V
20 °C 10 km+ 3.000 ft 340° 340° 4 kt METAR LFCK 061400Z AUTO 34004KT 310V010 9999 FEW022 BKN030 OVC035 20/15 Q1029 NOSIG
15:30
V
21 °C 10 km+ 3.500 ft 240° 240° 3 kt METAR LFCK 061330Z AUTO 24003KT 180V290 9999 SCT022 BKN035 21/15 Q1029 NOSIG
15:00
M
20 °C 10 km+ 2.600 ft 280° 280° 4 kt METAR LFCK 061300Z AUTO 28004KT 190V340 9999 SCT020 BKN026 20/15 Q1029 NOSIG
14:30
M
19 °C 10 km+ 1.200 ft 280° 280° 4 kt METAR LFCK 061230Z AUTO 28004KT 250V310 9999 BKN012 OVC025 19/15 Q1030 BECMG SCT018 BKN030
14:00
M
18 °C 10 km+ 1.100 ft 270° 270° 4 kt METAR LFCK 061200Z AUTO 27004KT 240V310 9999 BKN011 OVC026 18/15 Q1030 BECMG SCT018 BKN030
13:30
I
18 °C 10 km+ 900 ft 280° 280° 4 kt METAR LFCK 061130Z AUTO 28004KT 250V320 9999 BKN009 OVC026 18/15 Q1030 BECMG SCT025
13:00
M
17 °C 10 km+ 1.000 ft 270° 270° 3 kt METAR LFCK 061100Z AUTO 27003KT 230V300 9999 BKN010 OVC025 17/15 Q1031 BECMG SCT013 BKN020
12:30
I
16 °C 9 km 800 ft Var Var 2 kt METAR LFCK 061030Z AUTO VRB02KT 9000 OVC008 16/15 Q1031 BECMG SCT013 BKN020
12:00
I
16 °C 5 km 600 ft 300° 300° 3 kt METAR LFCK 061000Z AUTO 30003KT 5000 BR OVC006 16/15 Q1031 BECMG SCT013 BKN020
11:30
I
16 °C 5 km 700 ft 280° 280° 5 kt METAR LFCK 060930Z AUTO 28005KT 5000 BR BKN007 OVC013 16/15 Q1031 BECMG SCT008 BKN020
11:00
I
16 °C 9 km 600 ft 270° 270° 5 kt METAR LFCK 060900Z AUTO 27005KT 9000 OVC006 16/15 Q1031 BECMG NSC
10:30
I
16 °C 9 km 600 ft 270° 270° 5 kt METAR LFCK 060830Z AUTO 27005KT 9000 OVC006 16/15 Q1031 BECMG NSC
10:00
I
16 °C 8 km 600 ft 260° 260° 4 kt METAR LFCK 060800Z AUTO 26004KT 230V290 8000 BKN006 OVC011 16/15 Q1031 TEMPO 4000 -DZ BECMG OVC011
09:30
M
16 °C 6 km 1.200 ft 260° 260° 4 kt METAR LFCK 060730Z AUTO 26004KT 6000 OVC012 16/15 Q1031 TEMPO 4000 -DZ OVC006
09:00
M
16 °C 6 km 1.000 ft 280° 280° 4 kt METAR LFCK 060700Z AUTO 28004KT 6000 OVC010 16/15 Q1031 TEMPO 4000 -DZ
08:30
I
16 °C 6 km 700 ft 260° 260° 3 kt METAR LFCK 060630Z AUTO 26003KT 6000 OVC007 16/15 Q1030 BECMG OVC010
08:00
I
15 °C 4,4 km 900 ft 240° 240° 3 kt METAR LFCK 060600Z AUTO 24003KT 4400 BR OVC009 15/15 Q1030 BECMG 7000 NSW OVC010
07:30
I
16 °C 4,4 km 800 ft 250° 250° 3 kt METAR LFCK 060530Z AUTO 25003KT 4400 -RADZ BR OVC008 16/15 Q1030 BECMG 7000 NSW OVC010
07:00
M
16 °C 7 km 1.100 ft Var 000° 0 kt METAR LFCK 060500Z AUTO 00000KT 7000 OVC011 16/15 Q1030
06:30
M
16 °C 9 km 1.000 ft Var 000° 0 kt METAR LFCK 060430Z AUTO 00000KT 9000 OVC010 16/15 Q1030
06:00
I
16 °C 7 km 900 ft 290° 290° 3 kt METAR LFCK 060400Z AUTO 29003KT 7000 -DZ OVC009 16/15 Q1030
05:30
I
15 °C 9 km 900 ft Var Var 2 kt METAR LFCK 060330Z AUTO VRB02KT 9000 -RADZ OVC009 15/15 Q1029
05:00
I
15 °C 7 km 800 ft Var Var 3 kt METAR LFCK 060300Z AUTO VRB03KT 7000 OVC008 15/14 Q1029
04:30
I
14 °C 5 km 800 ft 260° 260° 2 kt METAR LFCK 060230Z AUTO 26002KT 5000 -RADZ BR OVC008 14/14 Q1029
04:00
I
15 °C 9 km 900 ft Var Var 2 kt METAR LFCK 060200Z AUTO VRB02KT 9000 BKN009 OVC032 15/14 Q1029
03:30
M
14 °C 7 km 4.100 ft 060° 060° 4 kt METAR LFCK 060130Z AUTO 06004KT 7000 FEW013 SCT033 BKN041 14/14 Q1029
03:00
M
14 °C 5 km - Var Var 3 kt METAR LFCK 060100Z AUTO VRB03KT 5000 R14/0900U BR NSC 14/13 Q1029
02:30
V
14 °C 10 km+ - 270° 270° 3 kt METAR LFCK 060030Z AUTO 27003KT 220V310 CAVOK 14/14 Q1029
02:00
V
15 °C 10 km+ - Var Var 3 kt METAR LFCK 060000Z AUTO VRB03KT CAVOK 15/14 Q1029
01:30
V
16 °C 10 km+ - Var Var 3 kt METAR LFCK 052330Z AUTO VRB03KT CAVOK 16/14 Q1029
01:00
V
17 °C 10 km+ - 110° 110° 7 kt METAR LFCK 052300Z AUTO 11007KT CAVOK 17/15 Q1028
00:30
V
17 °C 10 km+ - 100° 100° 6 kt METAR LFCK 052230Z AUTO 10006KT CAVOK 17/15 Q1028
00:00
V
17 °C 10 km+ - 110° 110° 8 kt METAR LFCK 052200Z AUTO 11008KT CAVOK 17/15 Q1028

2022年10月5日

时间 代码 天气 温度 能见度 天花板 METAR/SPECI
23:30
V
17 °C 10 km+ - 100° 100° 8 kt METAR LFCK 052130Z AUTO 10008KT CAVOK 17/15 Q1028
23:00
V
18 °C 10 km+ - 100° 100° 8 kt METAR LFCK 052100Z AUTO 10008KT CAVOK 18/15 Q1028
22:30
V
18 °C 10 km+ - 100° 100° 7 kt METAR LFCK 052030Z AUTO 10007KT CAVOK 18/15 Q1027
22:00
V
18 °C 10 km+ - 110° 110° 7 kt METAR LFCK 052000Z AUTO 11007KT CAVOK 18/15 Q1027 NOSIG
21:30
V
18 °C 10 km+ - 100° 100° 8 kt METAR LFCK 051930Z AUTO 10008KT CAVOK 18/15 Q1027 NOSIG
21:00
V
18 °C 10 km+ - 110° 110° 7 kt METAR LFCK 051900Z AUTO 11007KT CAVOK 18/15 Q1026 NOSIG
20:30
V
18 °C 10 km+ - 100° 100° 7 kt METAR LFCK 051830Z AUTO 10007KT CAVOK 18/14 Q1026 NOSIG
20:00
V
19 °C 10 km+ - 120° 120° 9 kt METAR LFCK 051800Z AUTO 12009KT CAVOK 19/15 Q1026 NOSIG
19:30
V
19 °C 10 km+ - 130° 130° 10 kt METAR LFCK 051730Z AUTO 13010KT CAVOK 19/14 Q1025 NOSIG
19:00
V
20 °C 10 km+ - 130° 130° 10 kt METAR LFCK 051700Z AUTO 13010KT 110V170 CAVOK 20/14 Q1024 TEMPO 12018G28KT
18:30
V
21 °C 10 km+ - 130° 130° 14 kt METAR LFCK 051630Z AUTO 13014KT CAVOK 21/14 Q1024 TEMPO 12018G28KT
18:00
V
22 °C 10 km+ - 130° 130° 13 kt METAR LFCK 051600Z AUTO 13013KT CAVOK 22/14 Q1024 BECMG 12018G28KT
17:30
V
22 °C 10 km+ - 120° 120° 15 kt METAR LFCK 051530Z AUTO 12015KT CAVOK 22/14 Q1024 BECMG 12018G28KT
17:00
V
23 °C 10 km+ - 120° 120° 17 kt METAR LFCK 051500Z AUTO 12017KT CAVOK 23/14 Q1024 BECMG 12018G28KT
较旧的数据

我们和第三方通过cookies跟踪您在我们网站上的上网行为。如果您继续,我们认为您同意我们的cookie政策。 了解更多